sensor_id;sensor_type;location;lat;lon;timestamp;pressure;altitude;pressure_sealevel;temperature;humidity
55687;BME280;41911;52.362;4.978;2023-04-15T00:00:04;100927.29;;;10.47;35.82
55687;BME280;41911;52.362;4.978;2023-04-15T00:00:35;100925.63;;;10.62;36.19
55687;BME280;41911;52.362;4.978;2023-04-15T00:01:06;100925.89;;;11.10;35.80
55687;BME280;41911;52.362;4.978;2023-04-15T00:01:37;100924.73;;;10.93;35.75
55687;BME280;41911;52.362;4.978;2023-04-15T00:02:14;100926.29;;;10.80;36.32
55687;BME280;41911;52.362;4.978;2023-04-15T00:02:45;100925.33;;;10.55;36.60
55687;BME280;41911;52.362;4.978;2023-04-15T00:03:16;100926.52;;;10.56;36.42
55687;BME280;41911;52.362;4.978;2023-04-15T00:23:09;100923.99;;;10.62;35.89
55687;BME280;41911;52.362;4.978;2023-04-15T00:23:40;100925.07;;;10.62;36.61
55687;BME280;41911;52.362;4.978;2023-04-15T00:24:11;100925.33;;;10.69;36.54
55687;BME280;41911;52.362;4.978;2023-04-15T00:24:42;100924.85;;;10.92;36.55
55687;BME280;41911;52.362;4.978;2023-04-15T00:25:13;100923.99;;;10.70;36.30
55687;BME280;41911;52.362;4.978;2023-04-15T00:25:44;100924.54;;;10.32;36.42
55687;BME280;41911;52.362;4.978;2023-04-15T00:26:15;100923.15;;;10.61;37.39
55687;BME280;41911;52.362;4.978;2023-04-15T00:26:47;100924.44;;;10.60;37.17
55687;BME280;41911;52.362;4.978;2023-04-15T00:27:18;100925.25;;;10.67;37.25
55687;BME280;41911;52.362;4.978;2023-04-15T00:27:49;100923.80;;;10.70;37.17
55687;BME280;41911;52.362;4.978;2023-04-15T00:28:20;100925.51;;;10.74;36.99
55687;BME280;41911;52.362;4.978;2023-04-15T00:28:51;100922.46;;;10.79;36.37
55687;BME280;41911;52.362;4.978;2023-04-15T00:29:21;100922.79;;;10.82;36.69
55687;BME280;41911;52.362;4.978;2023-04-15T00:29:52;100923.28;;;10.80;36.69
55687;BME280;41911;52.362;4.978;2023-04-15T00:30:23;100922.97;;;10.81;37.01
55687;BME280;41911;52.362;4.978;2023-04-15T00:30:54;100925.30;;;10.74;36.79
55687;BME280;41911;52.362;4.978;2023-04-15T00:31:25;100923.35;;;10.60;37.20
55687;BME280;41911;52.362;4.978;2023-04-15T00:31:56;100922.26;;;10.61;37.29
55687;BME280;41911;52.362;4.978;2023-04-15T00:32:27;100923.94;;;10.53;37.10
55687;BME280;41911;52.362;4.978;2023-04-15T00:32:59;100924.63;;;10.56;36.75
55687;BME280;41911;52.362;4.978;2023-04-15T00:33:30;100922.95;;;10.82;36.74
55687;BME280;41911;52.362;4.978;2023-04-15T00:34:01;100923.05;;;10.54;36.82
55687;BME280;41911;52.362;4.978;2023-04-15T00:34:32;100924.23;;;10.65;36.65
55687;BME280;41911;52.362;4.978;2023-04-15T00:35:04;100923.08;;;10.61;36.88
55687;BME280;41911;52.362;4.978;2023-04-15T00:35:36;100926.51;;;10.64;36.63
55687;BME280;41911;52.362;4.978;2023-04-15T00:36:07;100924.08;;;10.43;36.70
55687;BME280;41911;52.362;4.978;2023-04-15T00:36:38;100924.84;;;10.61;36.38
55687;BME280;41911;52.362;4.978;2023-04-15T00:37:09;100925.00;;;10.57;37.01
55687;BME280;41911;52.362;4.978;2023-04-15T00:37:40;100926.20;;;10.30;37.04
55687;BME280;41911;52.362;4.978;2023-04-15T00:38:11;100923.76;;;10.33;37.40
55687;BME280;41911;52.362;4.978;2023-04-15T00:38:42;100923.98;;;10.41;36.60
55687;BME280;41911;52.362;4.978;2023-04-15T00:39:13;100924.81;;;10.25;36.84
55687;BME280;41911;52.362;4.978;2023-04-15T00:39:45;100922.11;;;10.51;37.06
55687;BME280;41911;52.362;4.978;2023-04-15T00:40:17;100921.02;;;10.55;37.00
55687;BME280;41911;52.362;4.978;2023-04-15T00:40:49;100923.41;;;10.50;37.23
55687;BME280;41911;52.362;4.978;2023-04-15T00:41:20;100922.15;;;10.21;37.14
55687;BME280;41911;52.362;4.978;2023-04-15T00:41:51;100922.83;;;10.25;37.29
55687;BME280;41911;52.362;4.978;2023-04-15T00:42:24;100923.71;;;10.46;37.57
55687;BME280;41911;52.362;4.978;2023-04-15T00:42:55;100925.50;;;10.50;37.41
55687;BME280;41911;52.362;4.978;2023-04-15T00:43:26;100924.54;;;10.30;37.55
55687;BME280;41911;52.362;4.978;2023-04-15T00:43:57;100925.89;;;10.42;37.37
55687;BME280;41911;52.362;4.978;2023-04-15T00:44:27;100924.80;;;10.37;37.63
55687;BME280;41911;52.362;4.978;2023-04-15T00:44:58;100925.65;;;10.41;37.67
55687;BME280;41911;52.362;4.978;2023-04-15T00:45:29;100925.84;;;10.48;37.13
55687;BME280;41911;52.362;4.978;2023-04-15T00:46:00;100924.70;;;10.30;38.09
55687;BME280;41911;52.362;4.978;2023-04-15T00:46:35;100925.48;;;10.34;37.82
55687;BME280;41911;52.362;4.978;2023-04-15T00:47:06;100926.08;;;10.40;37.56
55687;BME280;41911;52.362;4.978;2023-04-15T00:47:38;100927.59;;;10.38;37.29
55687;BME280;41911;52.362;4.978;2023-04-15T00:48:11;100926.29;;;10.07;37.73
55687;BME280;41911;52.362;4.978;2023-04-15T00:48:42;100928.07;;;10.38;37.81
55687;BME280;41911;52.362;4.978;2023-04-15T00:49:13;100926.14;;;10.40;37.90
55687;BME280;41911;52.362;4.978;2023-04-15T00:49:44;100926.01;;;10.44;37.55
55687;BME280;41911;52.362;4.978;2023-04-15T00:50:15;100925.20;;;10.38;37.66
55687;BME280;41911;52.362;4.978;2023-04-15T00:50:46;100926.28;;;10.52;36.92
55687;BME280;41911;52.362;4.978;2023-04-15T00:51:17;100927.14;;;10.75;37.45
55687;BME280;41911;52.362;4.978;2023-04-15T00:51:48;100928.46;;;10.47;37.25
55687;BME280;41911;52.362;4.978;2023-04-15T00:52:19;100928.73;;;10.47;37.17
55687;BME280;41911;52.362;4.978;2023-04-15T00:52:49;100928.16;;;10.76;37.44
55687;BME280;41911;52.362;4.978;2023-04-15T00:53:20;100931.54;;;10.44;37.35
55687;BME280;41911;52.362;4.978;2023-04-15T00:53:51;100931.64;;;10.38;37.58
55687;BME280;41911;52.362;4.978;2023-04-15T00:54:22;100932.77;;;10.35;37.40
55687;BME280;41911;52.362;4.978;2023-04-15T00:54:53;100931.63;;;10.37;37.60
55687;BME280;41911;52.362;4.978;2023-04-15T00:55:24;100933.45;;;10.81;35.95
55687;BME280;41911;52.362;4.978;2023-04-15T00:55:55;100934.35;;;10.67;36.44
55687;BME280;41911;52.362;4.978;2023-04-15T00:56:27;100934.11;;;10.27;36.84
55687;BME280;41911;52.362;4.978;2023-04-15T00:56:58;100935.66;;;10.56;37.15
55687;BME280;41911;52.362;4.978;2023-04-15T00:57:30;100936.59;;;10.45;37.16
55687;BME280;41911;52.362;4.978;2023-04-15T00:58:01;100935.42;;;10.40;37.37
55687;BME280;41911;52.362;4.978;2023-04-15T00:58:32;100937.04;;;10.47;37.18
55687;BME280;41911;52.362;4.978;2023-04-15T00:59:03;100936.51;;;10.41;37.13
55687;BME280;41911;52.362;4.978;2023-04-15T00:59:34;100934.46;;;10.06;37.26
55687;BME280;41911;52.362;4.978;2023-04-15T01:00:07;100935.20;;;10.47;37.31
55687;BME280;41911;52.362;4.978;2023-04-15T01:00:37;100935.60;;;10.11;36.84
55687;BME280;41911;52.362;4.978;2023-04-15T01:01:09;100934.47;;;10.38;37.31
55687;BME280;41911;52.362;4.978;2023-04-15T01:01:40;100933.63;;;10.39;37.02
55687;BME280;41911;52.362;4.978;2023-04-15T01:02:12;100935.58;;;10.40;36.94
55687;BME280;41911;52.362;4.978;2023-04-15T01:02:43;100933.62;;;10.10;37.40
55687;BME280;41911;52.362;4.978;2023-04-15T01:03:14;100934.05;;;10.16;37.83
55687;BME280;41911;52.362;4.978;2023-04-15T01:03:45;100934.96;;;10.40;37.36
55687;BME280;41911;52.362;4.978;2023-04-15T01:04:16;100936.27;;;10.41;37.56
55687;BME280;41911;52.362;4.978;2023-04-15T01:04:47;100936.36;;;10.36;37.46
55687;BME280;41911;52.362;4.978;2023-04-15T01:05:18;100937.73;;;10.41;37.41
55687;BME280;41911;52.362;4.978;2023-04-15T01:05:49;100937.02;;;10.41;37.52
55687;BME280;41911;52.362;4.978;2023-04-15T01:06:20;100936.56;;;10.38;37.42
55687;BME280;41911;52.362;4.978;2023-04-15T01:06:51;100937.83;;;10.18;37.41
55687;BME280;41911;52.362;4.978;2023-04-15T01:07:22;100935.20;;;10.15;37.61
55687;BME280;41911;52.362;4.978;2023-04-15T01:07:54;100939.20;;;10.34;37.89
55687;BME280;41911;52.362;4.978;2023-04-15T01:08:26;100935.86;;;10.26;37.99
55687;BME280;41911;52.362;4.978;2023-04-15T01:08:58;100940.28;;;10.54;38.03
55687;BME280;41911;52.362;4.978;2023-04-15T01:09:28;100940.01;;;10.24;37.90
55687;BME280;41911;52.362;4.978;2023-04-15T01:09:59;100940.68;;;9.91;37.90
55687;BME280;41911;52.362;4.978;2023-04-15T01:10:31;100941.41;;;10.11;38.28
55687;BME280;41911;52.362;4.978;2023-04-15T01:11:02;100944.31;;;10.10;38.31
55687;BME280;41911;52.362;4.978;2023-04-15T01:11:34;100943.55;;;10.14;38.04
55687;BME280;41911;52.362;4.978;2023-04-15T01:12:06;100942.66;;;10.44;37.94
55687;BME280;41911;52.362;4.978;2023-04-15T01:12:37;100939.72;;;10.16;38.23
55687;BME280;41911;52.362;4.978;2023-04-15T01:13:08;100941.98;;;10.37;38.48
55687;BME280;41911;52.362;4.978;2023-04-15T01:13:39;100944.87;;;10.08;38.33
55687;BME280;41911;52.362;4.978;2023-04-15T01:14:10;100942.84;;;10.34;38.36
55687;BME280;41911;52.362;4.978;2023-04-15T01:14:41;100941.50;;;9.95;38.46
55687;BME280;41911;52.362;4.978;2023-04-15T01:15:12;100941.44;;;10.04;38.45
55687;BME280;41911;52.362;4.978;2023-04-15T01:15:44;100942.86;;;10.06;38.26
55687;BME280;41911;52.362;4.978;2023-04-15T01:16:14;100940.96;;;10.21;38.27
55687;BME280;41911;52.362;4.978;2023-04-15T01:16:46;100942.96;;;10.06;38.33
55687;BME280;41911;52.362;4.978;2023-04-15T01:17:17;100942.60;;;10.07;38.42
55687;BME280;41911;52.362;4.978;2023-04-15T01:17:48;100940.78;;;10.18;38.22
55687;BME280;41911;52.362;4.978;2023-04-15T01:18:20;100941.27;;;10.24;38.35
55687;BME280;41911;52.362;4.978;2023-04-15T01:18:51;100941.02;;;10.24;38.68
55687;BME280;41911;52.362;4.978;2023-04-15T01:19:22;100942.91;;;10.17;38.63
55687;BME280;41911;52.362;4.978;2023-04-15T01:19:55;100940.69;;;10.20;38.46
55687;BME280;41911;52.362;4.978;2023-04-15T01:20:26;100943.33;;;10.08;38.78
55687;BME280;41911;52.362;4.978;2023-04-15T01:20:57;100944.65;;;10.10;38.55
55687;BME280;41911;52.362;4.978;2023-04-15T01:21:30;100942.56;;;10.23;38.13
55687;BME280;41911;52.362;4.978;2023-04-15T01:22:01;100944.29;;;10.10;38.43
55687;BME280;41911;52.362;4.978;2023-04-15T01:22:33;100944.97;;;9.79;38.58
55687;BME280;41911;52.362;4.978;2023-04-15T01:23:04;100943.38;;;10.04;38.75
55687;BME280;41911;52.362;4.978;2023-04-15T01:23:36;100944.52;;;10.04;38.80
55687;BME280;41911;52.362;4.978;2023-04-15T01:24:09;100943.99;;;10.04;38.94
55687;BME280;41911;52.362;4.978;2023-04-15T01:24:40;100942.92;;;10.05;38.72
55687;BME280;41911;52.362;4.978;2023-04-15T01:25:17;100941.35;;;10.23;39.20
55687;BME280;41911;52.362;4.978;2023-04-15T01:25:48;100940.47;;;10.30;38.82
55687;BME280;41911;52.362;4.978;2023-04-15T01:26:20;100940.33;;;10.03;38.81
55687;BME280;41911;52.362;4.978;2023-04-15T01:26:51;100941.97;;;10.02;38.99
55687;BME280;41911;52.362;4.978;2023-04-15T01:27:22;100941.61;;;9.96;39.27
55687;BME280;41911;52.362;4.978;2023-04-15T01:27:53;100942.39;;;10.04;39.12
55687;BME280;41911;52.362;4.978;2023-04-15T01:28:24;100942.76;;;10.07;39.14
55687;BME280;41911;52.362;4.978;2023-04-15T01:28:55;100943.08;;;10.05;39.10
55687;BME280;41911;52.362;4.978;2023-04-15T01:29:26;100940.75;;;9.99;39.40
55687;BME280;41911;52.362;4.978;2023-04-15T01:29:57;100941.66;;;10.05;39.50
55687;BME280;41911;52.362;4.978;2023-04-15T01:30:28;100942.30;;;10.48;39.37
55687;BME280;41911;52.362;4.978;2023-04-15T01:31:05;100944.24;;;10.12;39.42
55687;BME280;41911;52.362;4.978;2023-04-15T01:31:36;100941.45;;;10.10;39.60
55687;BME280;41911;52.362;4.978;2023-04-15T01:32:07;100945.13;;;10.32;39.89
55687;BME280;41911;52.362;4.978;2023-04-15T01:32:38;100945.59;;;10.16;39.88
55687;BME280;41911;52.362;4.978;2023-04-15T01:33:09;100943.95;;;10.01;40.07
55687;BME280;41911;52.362;4.978;2023-04-15T01:33:41;100942.66;;;10.07;40.03
55687;BME280;41911;52.362;4.978;2023-04-15T01:34:12;100942.11;;;10.05;40.09
55687;BME280;41911;52.362;4.978;2023-04-15T01:34:43;100939.42;;;9.98;40.38
55687;BME280;41911;52.362;4.978;2023-04-15T01:35:14;100941.16;;;9.94;40.44
55687;BME280;41911;52.362;4.978;2023-04-15T01:35:45;100941.76;;;9.96;40.48
55687;BME280;41911;52.362;4.978;2023-04-15T01:36:16;100941.14;;;9.86;40.84
55687;BME280;41911;52.362;4.978;2023-04-15T01:36:47;100940.40;;;10.07;40.84
55687;BME280;41911;52.362;4.978;2023-04-15T01:37:18;100941.44;;;10.10;40.64
55687;BME280;41911;52.362;4.978;2023-04-15T01:37:49;100942.54;;;9.52;40.77
55687;BME280;41911;52.362;4.978;2023-04-15T01:38:20;100944.60;;;9.86;40.86
55687;BME280;41911;52.362;4.978;2023-04-15T01:38:51;100946.23;;;9.78;40.90
55687;BME280;41911;52.362;4.978;2023-04-15T01:39:22;100945.77;;;9.49;41.10
55687;BME280;41911;52.362;4.978;2023-04-15T01:39:53;100946.99;;;9.92;41.07
55687;BME280;41911;52.362;4.978;2023-04-15T01:40:24;100948.13;;;9.60;41.06
55687;BME280;41911;52.362;4.978;2023-04-15T01:40:55;100947.71;;;9.62;40.95
55687;BME280;41911;52.362;4.978;2023-04-15T01:41:26;100951.74;;;9.85;40.94
55687;BME280;41911;52.362;4.978;2023-04-15T01:41:57;100951.14;;;9.53;41.01
55687;BME280;41911;52.362;4.978;2023-04-15T01:42:28;100949.24;;;9.59;41.22
55687;BME280;41911;52.362;4.978;2023-04-15T01:43:00;100948.66;;;9.51;40.98
55687;BME280;41911;52.362;4.978;2023-04-15T01:43:31;100948.63;;;9.89;40.78
55687;BME280;41911;52.362;4.978;2023-04-15T01:44:02;100949.90;;;9.64;40.58
55687;BME280;41911;52.362;4.978;2023-04-15T01:44:33;100947.47;;;10.05;40.68
55687;BME280;41911;52.362;4.978;2023-04-15T01:45:05;100946.77;;;9.88;40.99
55687;BME280;41911;52.362;4.978;2023-04-15T01:45:36;100951.67;;;9.53;41.24
55687;BME280;41911;52.362;4.978;2023-04-15T01:46:07;100950.49;;;10.13;40.96
55687;BME280;41911;52.362;4.978;2023-04-15T01:46:38;100954.04;;;9.62;40.94
55687;BME280;41911;52.362;4.978;2023-04-15T01:47:09;100954.25;;;9.50;41.22
55687;BME280;41911;52.362;4.978;2023-04-15T01:47:40;100954.41;;;9.77;41.23
55687;BME280;41911;52.362;4.978;2023-04-15T01:48:11;100953.73;;;9.54;41.10
55687;BME280;41911;52.362;4.978;2023-04-15T01:48:42;100953.55;;;9.58;40.90
55687;BME280;41911;52.362;4.978;2023-04-15T01:49:12;100955.01;;;9.46;41.25
55687;BME280;41911;52.362;4.978;2023-04-15T01:49:43;100954.21;;;9.35;41.34
55687;BME280;41911;52.362;4.978;2023-04-15T01:50:14;100952.25;;;9.68;41.30
55687;BME280;41911;52.362;4.978;2023-04-15T01:50:45;100955.13;;;9.74;41.35
55687;BME280;41911;52.362;4.978;2023-04-15T01:51:16;100954.72;;;9.66;41.26
55687;BME280;41911;52.362;4.978;2023-04-15T01:51:47;100953.87;;;9.84;41.11
55687;BME280;41911;52.362;4.978;2023-04-15T01:52:18;100950.44;;;9.30;41.10
55687;BME280;41911;52.362;4.978;2023-04-15T01:52:49;100955.41;;;9.61;41.29
55687;BME280;41911;52.362;4.978;2023-04-15T01:53:20;100955.50;;;9.46;41.05
55687;BME280;41911;52.362;4.978;2023-04-15T01:53:51;100954.32;;;9.71;41.06
55687;BME280;41911;52.362;4.978;2023-04-15T01:54:22;100956.35;;;9.56;41.00
55687;BME280;41911;52.362;4.978;2023-04-15T01:54:53;100958.57;;;9.38;40.69
55687;BME280;41911;52.362;4.978;2023-04-15T01:55:24;100958.34;;;9.47;40.88
55687;BME280;41911;52.362;4.978;2023-04-15T01:55:55;100961.04;;;9.56;40.59
55687;BME280;41911;52.362;4.978;2023-04-15T01:56:26;100959.36;;;9.27;40.85
55687;BME280;41911;52.362;4.978;2023-04-15T01:56:56;100959.00;;;9.30;41.05
55687;BME280;41911;52.362;4.978;2023-04-15T01:57:27;100959.27;;;9.40;41.24
55687;BME280;41911;52.362;4.978;2023-04-15T01:57:58;100961.00;;;9.63;40.80
55687;BME280;41911;52.362;4.978;2023-04-15T01:58:29;100959.53;;;9.47;41.10
55687;BME280;41911;52.362;4.978;2023-04-15T01:59:00;100960.90;;;9.57;41.08
55687;BME280;41911;52.362;4.978;2023-04-15T01:59:31;100960.92;;;9.86;41.04
55687;BME280;41911;52.362;4.978;2023-04-15T02:00:03;100959.11;;;9.64;41.04
55687;BME280;41911;52.362;4.978;2023-04-15T02:00:34;100959.81;;;9.80;41.04
55687;BME280;41911;52.362;4.978;2023-04-15T02:01:05;100959.20;;;9.44;41.25
55687;BME280;41911;52.362;4.978;2023-04-15T02:01:36;100955.18;;;9.33;41.35
55687;BME280;41911;52.362;4.978;2023-04-15T02:02:07;100960.45;;;9.51;41.21
55687;BME280;41911;52.362;4.978;2023-04-15T02:02:38;100957.55;;;9.65;40.81
55687;BME280;41911;52.362;4.978;2023-04-15T02:03:09;100957.11;;;9.80;41.23
55687;BME280;41911;52.362;4.978;2023-04-15T02:03:40;100957.34;;;9.39;41.19
55687;BME280;41911;52.362;4.978;2023-04-15T02:04:11;100956.04;;;9.42;41.26
55687;BME280;41911;52.362;4.978;2023-04-15T02:04:42;100952.61;;;9.60;41.38
55687;BME280;41911;52.362;4.978;2023-04-15T02:05:13;100955.64;;;9.57;41.33
55687;BME280;41911;52.362;4.978;2023-04-15T02:05:44;100956.71;;;9.28;41.28
55687;BME280;41911;52.362;4.978;2023-04-15T02:06:15;100955.99;;;9.00;41.35
55687;BME280;41911;52.362;4.978;2023-04-15T02:06:46;100955.94;;;9.67;41.33
55687;BME280;41911;52.362;4.978;2023-04-15T02:07:16;100956.95;;;9.65;41.50
55687;BME280;41911;52.362;4.978;2023-04-15T02:07:47;100956.50;;;9.54;41.44
55687;BME280;41911;52.362;4.978;2023-04-15T02:08:18;100956.47;;;9.17;41.40
55687;BME280;41911;52.362;4.978;2023-04-15T02:08:49;100956.47;;;9.55;41.31
55687;BME280;41911;52.362;4.978;2023-04-15T02:09:20;100957.73;;;9.55;41.36
55687;BME280;41911;52.362;4.978;2023-04-15T02:09:51;100958.08;;;9.45;41.36
55687;BME280;41911;52.362;4.978;2023-04-15T02:10:22;100956.23;;;9.50;41.58
55687;BME280;41911;52.362;4.978;2023-04-15T02:10:53;100955.26;;;9.54;41.38
55687;BME280;41911;52.362;4.978;2023-04-15T02:11:24;100958.57;;;9.22;41.43
55687;BME280;41911;52.362;4.978;2023-04-15T02:11:55;100958.97;;;9.22;41.49
55687;BME280;41911;52.362;4.978;2023-04-15T02:12:27;100959.76;;;9.44;41.69
55687;BME280;41911;52.362;4.978;2023-04-15T02:12:58;100959.04;;;9.42;41.70
55687;BME280;41911;52.362;4.978;2023-04-15T02:13:29;100963.15;;;9.36;41.77
55687;BME280;41911;52.362;4.978;2023-04-15T02:13:59;100962.30;;;9.29;41.98
55687;BME280;41911;52.362;4.978;2023-04-15T02:14:31;100962.60;;;9.23;41.77
55687;BME280;41911;52.362;4.978;2023-04-15T02:15:02;100964.23;;;9.04;41.82
55687;BME280;41911;52.362;4.978;2023-04-15T02:15:33;100960.52;;;9.30;41.77
55687;BME280;41911;52.362;4.978;2023-04-15T02:16:14;100960.33;;;9.37;41.78
55687;BME280;41911;52.362;4.978;2023-04-15T02:16:45;100962.18;;;9.45;41.70
55687;BME280;41911;52.362;4.978;2023-04-15T02:17:16;100962.27;;;9.47;41.53
55687;BME280;41911;52.362;4.978;2023-04-15T02:17:47;100960.97;;;9.53;41.54
55687;BME280;41911;52.362;4.978;2023-04-15T02:18:18;100962.52;;;9.46;41.67
55687;BME280;41911;52.362;4.978;2023-04-15T02:18:49;100962.52;;;9.40;41.89
55687;BME280;41911;52.362;4.978;2023-04-15T02:19:20;100965.05;;;9.06;41.84
55687;BME280;41911;52.362;4.978;2023-04-15T02:19:51;100963.09;;;9.27;41.99
55687;BME280;41911;52.362;4.978;2023-04-15T02:20:22;100964.66;;;9.37;42.05
55687;BME280;41911;52.362;4.978;2023-04-15T02:20:53;100964.55;;;9.38;41.81
55687;BME280;41911;52.362;4.978;2023-04-15T02:21:25;100964.77;;;9.36;41.78
55687;BME280;41911;52.362;4.978;2023-04-15T02:21:56;100965.68;;;9.08;41.79
55687;BME280;41911;52.362;4.978;2023-04-15T02:22:27;100965.22;;;9.36;41.73
55687;BME280;41911;52.362;4.978;2023-04-15T02:22:58;100965.86;;;9.35;41.55
55687;BME280;41911;52.362;4.978;2023-04-15T02:23:29;100965.35;;;9.41;41.57
55687;BME280;41911;52.362;4.978;2023-04-15T02:24:00;100965.90;;;9.28;41.80
55687;BME280;41911;52.362;4.978;2023-04-15T02:24:30;100968.88;;;9.29;41.70
55687;BME280;41911;52.362;4.978;2023-04-15T02:25:01;100969.09;;;9.23;41.88
55687;BME280;41911;52.362;4.978;2023-04-15T02:25:32;100967.68;;;9.28;41.75
55687;BME280;41911;52.362;4.978;2023-04-15T02:26:03;100964.65;;;9.28;41.71
55687;BME280;41911;52.362;4.978;2023-04-15T02:26:35;100964.10;;;9.23;41.65
55687;BME280;41911;52.362;4.978;2023-04-15T02:27:05;100965.19;;;9.30;41.71
55687;BME280;41911;52.362;4.978;2023-04-15T02:27:36;100961.08;;;9.37;41.74
55687;BME280;41911;52.362;4.978;2023-04-15T02:28:07;100964.52;;;9.32;41.73
55687;BME280;41911;52.362;4.978;2023-04-15T02:28:38;100963.21;;;9.26;41.74
55687;BME280;41911;52.362;4.978;2023-04-15T02:29:09;100963.95;;;9.25;41.80
55687;BME280;41911;52.362;4.978;2023-04-15T02:29:41;100965.07;;;9.27;41.67
55687;BME280;41911;52.362;4.978;2023-04-15T02:30:13;100965.59;;;9.15;41.58
55687;BME280;41911;52.362;4.978;2023-04-15T02:30:47;100964.73;;;9.03;41.95
55687;BME280;41911;52.362;4.978;2023-04-15T02:31:18;100967.98;;;9.02;42.29
55687;BME280;41911;52.362;4.978;2023-04-15T02:31:49;100968.93;;;8.97;42.18
55687;BME280;41911;52.362;4.978;2023-04-15T02:32:20;100968.58;;;9.39;42.01
55687;BME280;41911;52.362;4.978;2023-04-15T02:32:51;100966.79;;;9.05;42.25
55687;BME280;41911;52.362;4.978;2023-04-15T02:33:22;100966.68;;;9.07;42.09
55687;BME280;41911;52.362;4.978;2023-04-15T02:33:53;100966.50;;;9.06;42.22
55687;BME280;41911;52.362;4.978;2023-04-15T02:34:24;100965.91;;;9.21;41.83
55687;BME280;41911;52.362;4.978;2023-04-15T02:34:55;100966.82;;;9.20;41.95
55687;BME280;41911;52.362;4.978;2023-04-15T02:35:26;100967.39;;;9.24;41.86
55687;BME280;41911;52.362;4.978;2023-04-15T02:35:57;100968.55;;;9.19;41.94
55687;BME280;41911;52.362;4.978;2023-04-15T02:36:29;100972.75;;;9.21;42.08
55687;BME280;41911;52.362;4.978;2023-04-15T02:37:00;100971.93;;;9.54;42.07
55687;BME280;41911;52.362;4.978;2023-04-15T02:37:32;100971.77;;;9.25;42.05
55687;BME280;41911;52.362;4.978;2023-04-15T02:38:02;100972.62;;;9.09;41.95
55687;BME280;41911;52.362;4.978;2023-04-15T02:38:33;100973.26;;;9.10;42.11
55687;BME280;41911;52.362;4.978;2023-04-15T02:39:05;100973.57;;;9.15;42.12
55687;BME280;41911;52.362;4.978;2023-04-15T02:39:36;100974.21;;;9.03;42.32
55687;BME280;41911;52.362;4.978;2023-04-15T02:40:08;100975.56;;;8.99;42.28
55687;BME280;41911;52.362;4.978;2023-04-15T02:40:39;100976.63;;;9.03;42.19
55687;BME280;41911;52.362;4.978;2023-04-15T02:41:10;100978.83;;;9.07;42.40
55687;BME280;41911;52.362;4.978;2023-04-15T02:41:41;100978.22;;;9.06;42.33
55687;BME280;41911;52.362;4.978;2023-04-15T02:42:11;100978.01;;;9.18;42.07
55687;BME280;41911;52.362;4.978;2023-04-15T02:42:43;100978.50;;;9.21;41.99
55687;BME280;41911;52.362;4.978;2023-04-15T02:43:14;100976.70;;;9.08;42.35
55687;BME280;41911;52.362;4.978;2023-04-15T02:43:45;100976.11;;;9.08;42.37
55687;BME280;41911;52.362;4.978;2023-04-15T02:44:16;100978.35;;;9.05;42.23
55687;BME280;41911;52.362;4.978;2023-04-15T02:44:47;100977.77;;;9.30;42.30
55687;BME280;41911;52.362;4.978;2023-04-15T02:45:18;100980.08;;;9.22;41.86
55687;BME280;41911;52.362;4.978;2023-04-15T02:45:49;100981.24;;;9.28;42.11
55687;BME280;41911;52.362;4.978;2023-04-15T02:46:20;100980.28;;;9.15;42.09
55687;BME280;41911;52.362;4.978;2023-04-15T02:46:51;100981.35;;;9.18;42.01
55687;BME280;41911;52.362;4.978;2023-04-15T02:47:22;100981.24;;;9.09;42.25
55687;BME280;41911;52.362;4.978;2023-04-15T02:47:53;100982.16;;;9.06;42.26
55687;BME280;41911;52.362;4.978;2023-04-15T02:48:23;100982.01;;;9.09;42.33
55687;BME280;41911;52.362;4.978;2023-04-15T02:48:54;100983.06;;;9.07;42.26
55687;BME280;41911;52.362;4.978;2023-04-15T02:49:26;100986.47;;;9.13;42.32
55687;BME280;41911;52.362;4.978;2023-04-15T02:49:57;100987.61;;;9.14;42.41
55687;BME280;41911;52.362;4.978;2023-04-15T02:50:28;100988.20;;;9.17;42.16
55687;BME280;41911;52.362;4.978;2023-04-15T02:51:15;100989.41;;;9.15;42.17
55687;BME280;41911;52.362;4.978;2023-04-15T02:51:47;100992.76;;;8.79;42.40
55687;BME280;41911;52.362;4.978;2023-04-15T02:52:18;100991.31;;;9.00;42.40
55687;BME280;41911;52.362;4.978;2023-04-15T02:52:49;100990.45;;;9.06;42.41
55687;BME280;41911;52.362;4.978;2023-04-15T02:53:20;100992.53;;;9.24;42.09
55687;BME280;41911;52.362;4.978;2023-04-15T02:53:51;100990.39;;;9.17;42.26
55687;BME280;41911;52.362;4.978;2023-04-15T02:54:21;100991.62;;;9.16;42.30
55687;BME280;41911;52.362;4.978;2023-04-15T02:54:52;100991.36;;;9.21;42.33
55687;BME280;41911;52.362;4.978;2023-04-15T02:55:23;100993.61;;;9.33;42.08
55687;BME280;41911;52.362;4.978;2023-04-15T02:55:54;100990.08;;;9.12;42.40
55687;BME280;41911;52.362;4.978;2023-04-15T02:56:25;100996.22;;;9.11;42.43
55687;BME280;41911;52.362;4.978;2023-04-15T02:56:56;100994.37;;;9.17;42.33
55687;BME280;41911;52.362;4.978;2023-04-15T02:57:27;100995.72;;;9.21;42.28
55687;BME280;41911;52.362;4.978;2023-04-15T02:57:58;100994.34;;;9.11;42.68
55687;BME280;41911;52.362;4.978;2023-04-15T02:58:29;100997.93;;;9.19;42.51
55687;BME280;41911;52.362;4.978;2023-04-15T02:59:00;100997.43;;;9.19;42.59
55687;BME280;41911;52.362;4.978;2023-04-15T02:59:31;100997.48;;;9.25;42.57
55687;BME280;41911;52.362;4.978;2023-04-15T03:00:02;100997.74;;;9.28;42.62
55687;BME280;41911;52.362;4.978;2023-04-15T03:00:34;101000.06;;;9.25;42.46
55687;BME280;41911;52.362;4.978;2023-04-15T03:01:04;101000.25;;;8.96;42.49
55687;BME280;41911;52.362;4.978;2023-04-15T03:01:35;100999.80;;;9.05;42.59
55687;BME280;41911;52.362;4.978;2023-04-15T03:02:06;101000.96;;;9.20;42.54
55687;BME280;41911;52.362;4.978;2023-04-15T03:02:38;101001.53;;;9.42;42.28
55687;BME280;41911;52.362;4.978;2023-04-15T03:03:09;100999.02;;;9.33;42.26
55687;BME280;41911;52.362;4.978;2023-04-15T03:03:40;101001.85;;;9.29;42.28